createdAt,value
2022-11-08T00:03:23.891Z,38.90
2022-11-08T00:09:45.366Z,48.23
2022-11-08T00:15:47.445Z,43.60
2022-11-08T00:21:49.766Z,34.80
2022-11-08T00:27:51.870Z,44.63
2022-11-08T00:33:54.004Z,38.37
2022-11-08T00:39:56.373Z,36.17
2022-11-08T00:45:58.571Z,38.25
2022-11-08T00:52:00.888Z,43.70
2022-11-08T00:58:02.929Z,37.45
2022-11-08T01:04:05.553Z,36.20
2022-11-08T01:10:08.267Z,40.35
2022-11-08T01:16:16.853Z,39.45
2022-11-08T01:22:18.997Z,31.55
2022-11-08T01:28:21.591Z,34.87
2022-11-08T01:34:23.869Z,44.13
2022-11-08T01:40:27.456Z,33.70
2022-11-08T01:46:38.742Z,25.75
2022-11-08T01:52:48.158Z,37.42
2022-11-08T01:58:54.601Z,37.80
2022-11-08T02:04:57.918Z,37.60
2022-11-08T02:11:00.189Z,30.98
2022-11-08T02:17:02.347Z,38.88
2022-11-08T02:23:19.681Z,47.13
2022-11-08T02:29:25.380Z,46.78
2022-11-08T02:35:28.174Z,36.28
2022-11-08T02:47:32.250Z,41.88
2022-11-08T02:53:34.703Z,47.67
2022-11-08T02:59:37.280Z,44.85
2022-11-08T03:05:39.610Z,36.92
2022-11-08T03:11:42.068Z,45.08
2022-11-08T03:17:44.839Z,45.63
2022-11-08T03:29:49.803Z,51.53
2022-11-08T03:41:54.719Z,44.85
2022-11-08T03:47:57.012Z,48.30
2022-11-08T03:53:59.190Z,37.95
2022-11-08T04:00:01.662Z,37.63
2022-11-08T04:06:04.292Z,44.83
2022-11-08T04:12:25.678Z,48.35
2022-11-08T04:18:46.784Z,50.28
2022-11-08T04:24:48.886Z,42.63
2022-11-08T04:31:03.531Z,33.23
2022-11-08T04:37:05.854Z,49.90
2022-11-08T04:43:08.089Z,37.40
2022-11-08T04:49:10.240Z,43.63
2022-11-08T04:55:12.392Z,51.63
2022-11-08T05:01:17.314Z,43.95
2022-11-08T05:07:20.702Z,39.75
2022-11-08T05:13:22.796Z,43.95
2022-11-08T05:19:43.599Z,51.07
2022-11-08T05:25:46.846Z,31.17
2022-11-08T05:31:49.172Z,29.15
2022-11-08T05:37:51.362Z,27.10
2022-11-08T05:43:55.265Z,30.30
2022-11-08T05:49:57.566Z,37.33
2022-11-08T05:56:02.577Z,36.35
2022-11-08T06:02:05.021Z,33.63
2022-11-08T06:08:07.201Z,43.25
2022-11-08T06:14:09.592Z,35.45
2022-11-08T06:20:14.656Z,38.13
2022-11-08T06:26:17.360Z,39.58
2022-11-08T06:32:19.810Z,35.72
2022-11-08T06:44:24.555Z,38.80
2022-11-08T06:50:27.229Z,34.45
2022-11-08T06:56:30.563Z,40.47
2022-11-08T07:02:33.109Z,40.20
2022-11-08T07:08:35.979Z,50.83
2022-11-08T07:20:41.205Z,50.42
2022-11-08T07:26:43.467Z,44.25
2022-11-08T07:32:45.676Z,47.77
2022-11-08T07:38:47.989Z,41.92
2022-11-08T07:44:50.213Z,49.30
2022-11-08T07:50:52.640Z,46.75
2022-11-08T07:56:54.818Z,39.08
2022-11-08T08:03:01.519Z,52.00
2022-11-08T08:09:04.299Z,54.40
2022-11-08T08:21:08.944Z,52.38
2022-11-08T08:27:11.757Z,43.95
2022-11-08T08:33:33.212Z,56.58
2022-11-08T08:39:36.395Z,35.40
2022-11-08T08:45:39.147Z,41.40
2022-11-08T08:51:41.112Z,48.20
2022-11-08T08:57:47.851Z,30.17
2022-11-08T09:03:49.951Z,49.22
2022-11-08T09:09:52.051Z,46.88
2022-11-08T09:15:55.221Z,57.17
2022-11-08T09:21:57.304Z,39.25
2022-11-08T09:27:59.401Z,36.83
2022-11-08T09:34:01.469Z,45.45
2022-11-08T09:40:04.079Z,40.60
2022-11-08T09:46:11.863Z,39.67
2022-11-08T09:52:24.230Z,35.33
2022-11-08T09:58:38.237Z,40.38
2022-11-08T10:04:40.277Z,39.00
2022-11-08T10:10:51.321Z,30.05
2022-11-08T10:17:34.966Z,30.92
2022-11-08T10:23:48.675Z,30.33
2022-11-08T10:29:55.308Z,25.80
2022-11-08T10:36:02.791Z,35.42
2022-11-08T10:42:17.579Z,37.92
2022-11-08T10:48:20.241Z,33.72
2022-11-08T10:54:46.122Z,53.22
2022-11-08T11:01:01.191Z,38.33
2022-11-08T11:07:24.139Z,24.02
2022-11-08T11:19:56.016Z,40.20
2022-11-08T11:25:58.817Z,34.60
2022-11-08T11:32:23.638Z,26.85
2022-11-08T11:38:47.487Z,28.98
2022-11-08T11:45:10.799Z,37.17
2022-11-08T11:57:50.834Z,36.78
2022-11-08T12:04:16.292Z,34.58
2022-11-08T12:10:33.064Z,34.65
2022-11-08T12:23:52.203Z,28.55
2022-11-08T12:30:09.708Z,29.17
2022-11-08T12:36:33.606Z,33.90
2022-11-08T12:43:17.424Z,37.00
2022-11-08T12:49:45.123Z,27.80
2022-11-08T12:55:48.778Z,37.47
2022-11-08T13:01:53.574Z,31.90
2022-11-08T13:08:13.544Z,30.55
2022-11-08T13:14:18.064Z,32.63
2022-11-08T13:33:15.391Z,52.67
2022-11-08T13:39:30.054Z,30.83
2022-11-08T13:45:34.108Z,31.17
2022-11-08T13:51:40.315Z,51.50
2022-11-08T13:58:01.486Z,37.72
2022-11-08T14:04:24.646Z,48.17
2022-11-08T14:10:58.769Z,39.67
2022-11-08T14:17:29.085Z,38.47
2022-11-08T14:23:32.613Z,40.25
2022-11-08T14:29:34.756Z,61.92
2022-11-08T14:35:37.000Z,54.22
2022-11-08T14:41:45.149Z,99.55
2022-11-08T14:47:52.993Z,65.85
2022-11-08T14:53:56.724Z,50.47
2022-11-08T15:00:00.898Z,67.68
2022-11-08T15:06:13.863Z,78.78
2022-11-08T15:12:20.022Z,68.05
2022-11-08T15:18:38.515Z,75.00
2022-11-08T15:24:41.246Z,60.28
2022-11-08T15:36:47.816Z,81.93
2022-11-08T15:42:52.523Z,76.97
2022-11-08T15:49:00.961Z,55.38
2022-11-08T15:55:03.050Z,60.97
2022-11-08T16:01:06.033Z,75.97
2022-11-08T16:07:08.908Z,63.80
2022-11-08T16:13:17.786Z,79.55
2022-11-08T16:19:25.321Z,65.72
2022-11-08T16:25:29.939Z,80.13
2022-11-08T16:31:32.158Z,71.70
2022-11-08T16:37:34.226Z,70.45
2022-11-08T16:43:36.753Z,100.87
2022-11-08T16:49:39.058Z,87.68
2022-11-08T16:55:41.367Z,82.63
2022-11-08T17:01:43.987Z,74.38
2022-11-08T17:07:46.325Z,75.40
2022-11-08T17:13:49.840Z,68.95
2022-11-08T17:19:52.266Z,66.32
2022-11-08T17:25:54.646Z,79.63
2022-11-08T17:31:56.848Z,72.72
2022-11-08T17:37:58.966Z,85.53
2022-11-08T17:44:00.917Z,79.10
2022-11-08T17:50:03.717Z,77.17
2022-11-08T18:02:09.607Z,64.97
2022-11-08T18:08:12.041Z,67.43
2022-11-08T18:14:15.500Z,59.30
2022-11-08T18:20:17.797Z,66.78
2022-11-08T18:26:20.098Z,65.55
2022-11-08T18:32:22.193Z,61.37
2022-11-08T18:38:25.150Z,70.00
2022-11-08T18:44:27.578Z,68.93
2022-11-08T18:50:29.813Z,83.85
2022-11-08T18:56:32.096Z,83.47
2022-11-08T19:02:34.416Z,65.28
2022-11-08T19:08:37.050Z,61.13
2022-11-08T19:14:39.266Z,71.50
2022-11-08T19:20:41.539Z,61.43
2022-11-08T19:26:43.661Z,86.35
2022-11-08T19:32:47.415Z,84.43
2022-11-08T19:38:50.228Z,57.92
2022-11-08T19:50:55.297Z,62.85
2022-11-08T20:03:08.742Z,79.35
2022-11-08T20:09:11.759Z,70.72
2022-11-08T20:15:13.861Z,63.55
2022-11-08T20:21:17.781Z,58.00
2022-11-08T20:27:20.045Z,68.28
2022-11-08T20:33:22.131Z,61.20
2022-11-08T20:39:24.273Z,68.23
2022-11-08T20:45:29.433Z,69.27
2022-11-08T20:51:32.297Z,64.53
2022-11-08T21:03:37.322Z,66.85
2022-11-08T21:15:53.006Z,69.17
2022-11-08T21:22:14.999Z,61.10
2022-11-08T21:28:17.715Z,44.03
2022-11-08T21:34:20.047Z,71.20
2022-11-08T21:40:22.911Z,68.67
2022-11-08T21:52:28.997Z,65.07
2022-11-08T21:58:31.514Z,63.58
2022-11-08T22:04:33.750Z,57.45
2022-11-08T22:10:36.025Z,62.43
2022-11-08T22:16:38.364Z,63.53
2022-11-08T22:22:41.033Z,60.58
2022-11-08T22:34:46.276Z,50.13
2022-11-08T22:40:48.745Z,76.63
2022-11-08T22:46:51.148Z,63.53
2022-11-08T22:52:53.370Z,52.78
2022-11-08T22:58:55.677Z,54.03
2022-11-08T23:04:58.142Z,65.32
2022-11-08T23:11:19.453Z,56.67
2022-11-08T23:17:21.777Z,66.05
2022-11-08T23:23:42.221Z,70.45
2022-11-08T23:30:03.073Z,53.20
2022-11-08T23:36:17.318Z,60.58
2022-11-08T23:42:38.179Z,55.47
2022-11-08T23:48:41.006Z,54.03
2022-11-08T23:54:43.267Z,59.00
